Time;durP1;ratioP1;P1;durP2;ratioP2;P2;SDS_P1;SDS_P2;PMS_P1;PMS_P2;Temp;Humidity;BMP_temperature;BMP_pressure;BME280_temperature;BME280_humidity;BME280_pressure;Samples;Min_cycle;Max_cycle;Signal;HPM_P1;HPM_P2
2024/03/26 00:00:58;;;;;;;48.53;36.10;;;;;;;;;;4968199;28;20043;-96
2024/03/26 00:03:33;;;;;;;56.42;37.08;;;;;;;;;;4985368;28;20093;-95
2024/03/26 00:06:02;;;;;;;52.70;38.60;;;;;;;;;;4986189;28;20488;-95
2024/03/26 00:08:56;;;;;;;;;;;;;;;;;;;;;
2024/03/26 00:11:36;;;;;;;50.45;40.60;;;;;;;;;;4963006;29;20058;-96
2024/03/26 00:14:14;;;;;;;56.45;46.80;;;;;;;;;;4968803;29;20042;-96
2024/03/26 00:19:59;;;;;;;55.78;50.50;;;;;;;;;;4912663;29;20053;-95
2024/03/26 00:22:29;;;;;;;65.05;54.33;;;;;;;;;;4909431;29;20036;-95
2024/03/26 00:25:15;;;;;;;;;;;;;;;;;;;;;
2024/03/26 00:31:04;;;;;;;130.13;120.78;;;;;;;;;;4914977;29;20037;-96
2024/03/26 00:33:44;;;;;;;74.15;67.80;;;;;;;;;;4915428;29;20063;-96
2024/03/26 00:36:22;;;;;;;79.65;73.05;;;;;;;;;;4912573;29;20084;-96
2024/03/26 00:39:11;;;;;;;120.50;111.88;;;;;;;;;;4915548;29;20044;-96
2024/03/26 00:42:06;;;;;;;90.15;82.90;;;;;;;;;;4914345;29;20040;-96
2024/03/26 00:44:59;;;;;;;110.13;101.72;;;;;;;;;;4893054;29;20048;-96
2024/03/26 00:47:37;;;;;;;74.38;68.47;;;;;;;;;;4870944;29;20041;-96
2024/03/26 00:50:07;;;;;;;64.82;59.08;;;;;;;;;;4882932;29;20105;-96
2024/03/26 00:52:40;;;;;;;38.97;34.13;;;;;;;;;;4892942;29;20141;-96
2024/03/26 00:55:35;;;;;;;47.33;42.78;;;;;;;;;;4875951;29;20124;-94
2024/03/26 00:58:01;;;;;;;50.55;45.42;;;;;;;;;;4873838;29;20037;-94
2024/03/26 01:03:06;;;;;;;38.10;28.92;;;;;;;;;;5510103;23;20117;-96
2024/03/26 01:06:07;;;;;;;45.10;40.47;;;;;;;;;;4979800;28;20476;-95
2024/03/26 01:08:55;;;;;;;36.03;31.60;;;;;;;;;;4962339;28;20032;-95
2024/03/26 01:11:35;;;;;;;40.65;35.05;;;;;;;;;;5001444;28;20089;-94
2024/03/26 01:14:58;;;;;;;51.38;46.15;;;;;;;;;;4916668;29;20037;-94
2024/03/26 01:20:47;;;;;;;70.60;64.65;;;;;;;;;;4906842;29;20087;-93
2024/03/26 01:23:19;;;;;;;36.15;27.95;;;;;;;;;;4901053;29;20040;-94
2024/03/26 01:25:54;;;;;;;30.23;25.50;;;;;;;;;;4914630;29;20041;-96
2024/03/26 01:28:46;;;;;;;33.75;27.10;;;;;;;;;;4902190;29;20037;-96
2024/03/26 01:31:13;;;;;;;28.15;24.05;;;;;;;;;;4914708;28;20026;-95
2024/03/26 01:36:17;;;;;;;26.85;23.13;;;;;;;;;;5025719;23;20058;-96
2024/03/26 01:39:10;;;;;;;29.80;26.83;;;;;;;;;;4973596;28;20023;-95
2024/03/26 01:41:43;;;;;;;25.75;23.05;;;;;;;;;;4987251;28;20038;-96
2024/03/26 01:44:36;;;;;;;28.23;25.30;;;;;;;;;;4989880;28;20082;-95
2024/03/26 01:47:05;;;;;;;28.75;25.73;;;;;;;;;;4980105;28;20042;-95
2024/03/26 01:49:35;;;;;;;30.52;27.58;;;;;;;;;;4987359;28;20046;-96
2024/03/26 01:52:17;;;;;;;37.72;32.95;;;;;;;;;;4988100;28;20046;-93
2024/03/26 01:54:50;;;;;;;33.22;29.88;;;;;;;;;;4950213;28;20058;-96
2024/03/26 01:57:20;;;;;;;44.15;39.83;;;;;;;;;;4979230;28;20105;-94
2024/03/26 01:59:55;;;;;;;33.63;30.58;;;;;;;;;;4978474;28;20034;-93
2024/03/26 02:02:33;;;;;;;39.40;36.00;;;;;;;;;;4978649;28;20026;-95
2024/03/26 02:05:03;;;;;;;29.80;26.92;;;;;;;;;;4979686;28;20045;-96
2024/03/26 02:07:44;;;;;;;33.38;30.33;;;;;;;;;;4980565;28;20037;-96
2024/03/26 02:10:14;;;;;;;30.67;27.67;;;;;;;;;;4981520;28;20551;-94
2024/03/26 02:12:43;;;;;;;39.22;35.92;;;;;;;;;;4979761;28;20018;-95
2024/03/26 02:15:15;;;;;;;40.92;37.05;;;;;;;;;;4980102;28;20026;-96
2024/03/26 02:17:44;;;;;;;47.70;43.63;;;;;;;;;;4984234;28;20395;-93
2024/03/26 02:20:31;;;;;;;62.20;57.53;;;;;;;;;;4982979;28;20034;-95
2024/03/26 02:23:00;;;;;;;49.78;45.70;;;;;;;;;;5001475;28;20030;-93
2024/03/26 02:25:32;;;;;;;43.35;39.83;;;;;;;;;;4984578;28;20026;-94
2024/03/26 02:28:01;;;;;;;49.42;45.58;;;;;;;;;;4982022;28;20495;-95
2024/03/26 02:30:30;;;;;;;62.05;57.25;;;;;;;;;;4981702;28;20034;-95
2024/03/26 02:32:59;;;;;;;79.65;74.03;;;;;;;;;;4983914;28;20535;-95
2024/03/26 02:35:35;;;;;;;69.88;64.97;;;;;;;;;;4980679;28;20138;-95
2024/03/26 02:38:07;;;;;;;67.22;62.30;;;;;;;;;;4980865;28;20030;-95
2024/03/26 02:40:39;;;;;;;46.38;42.55;;;;;;;;;;4980772;28;20034;-95
2024/03/26 02:43:08;;;;;;;58.53;54.03;;;;;;;;;;4980516;28;20069;-95
2024/03/26 02:45:40;;;;;;;75.50;70.20;;;;;;;;;;4980459;28;20033;-95
2024/03/26 02:48:13;;;;;;;53.63;49.65;;;;;;;;;;4980889;28;20027;-95
2024/03/26 02:50:39;;;;;;;50.42;46.35;;;;;;;;;;4980358;28;20045;-95
2024/03/26 02:53:05;;;;;;;69.55;64.32;;;;;;;;;;4980833;28;20388;-94
2024/03/26 02:55:34;;;;;;;60.78;56.08;;;;;;;;;;4980823;28;20022;-95
2024/03/26 02:58:04;;;;;;;62.55;58.17;;;;;;;;;;4993042;28;20042;-94
2024/03/26 03:00:36;;;;;;;84.90;79.35;;;;;;;;;;4996541;28;20038;-96
2024/03/26 03:03:08;;;;;;;57.55;53.17;;;;;;;;;;4985004;28;20114;-95
2024/03/26 03:05:41;;;;;;;35.13;32.20;;;;;;;;;;4979920;28;20125;-94
2024/03/26 03:08:13;;;;;;;38.58;35.28;;;;;;;;;;4980496;28;20030;-95
2024/03/26 03:10:45;;;;;;;58.35;53.95;;;;;;;;;;4980242;28;20495;-94
2024/03/26 03:13:11;;;;;;;54.05;49.83;;;;;;;;;;4980027;28;20030;-93
2024/03/26 03:15:37;;;;;;;57.35;53.08;;;;;;;;;;4980377;28;20108;-95
2024/03/26 03:18:09;;;;;;;52.47;48.40;;;;;;;;;;4980444;28;20161;-94
2024/03/26 03:20:45;;;;;;;64.57;59.92;;;;;;;;;;4980029;28;20464;-95
2024/03/26 03:23:21;;;;;;;51.78;47.70;;;;;;;;;;4980874;28;20057;-94
2024/03/26 03:26:00;;;;;;;46.40;43.00;;;;;;;;;;4981123;28;20080;-94
2024/03/26 03:28:38;;;;;;;44.00;40.65;;;;;;;;;;4980498;28;20483;-94
2024/03/26 03:31:04;;;;;;;60.13;55.78;;;;;;;;;;4981040;28;20066;-95
2024/03/26 03:33:30;;;;;;;43.97;40.40;;;;;;;;;;4981310;28;20058;-94
2024/03/26 03:36:05;;;;;;;43.08;39.67;;;;;;;;;;4966779;28;20101;-94
2024/03/26 03:38:37;;;;;;;52.50;48.58;;;;;;;;;;4961571;28;20034;-94
2024/03/26 03:41:06;;;;;;;38.20;35.25;;;;;;;;;;4961377;28;20444;-95
2024/03/26 03:43:35;;;;;;;43.53;40.17;;;;;;;;;;4961016;28;20050;-94
2024/03/26 03:46:04;;;;;;;29.42;26.67;;;;;;;;;;4961788;28;20034;-95
2024/03/26 03:48:34;;;;;;;38.47;34.92;;;;;;;;;;4962646;28;20026;-95
2024/03/26 03:51:06;;;;;;;40.63;37.45;;;;;;;;;;4962193;28;20023;-95
2024/03/26 03:53:35;;;;;;;32.33;29.30;;;;;;;;;;4962191;28;20033;-93
2024/03/26 04:02:45;;;;;;;37.20;34.10;;;;;;;;;;4977518;28;20038;-94
2024/03/26 04:05:14;;;;;;;44.58;40.95;;;;;;;;;;4961023;28;20290;-94
2024/03/26 04:08:11;;;;;;;40.30;37.13;;;;;;;;;;4964208;28;20065;-93
2024/03/26 04:10:43;;;;;;;30.00;27.20;;;;;;;;;;4970101;28;20066;-94
2024/03/26 04:13:12;;;;;;;44.03;40.38;;;;;;;;;;4962237;28;20031;-96
2024/03/26 04:16:07;;;;;;;50.53;46.05;;;;;;;;;;4963327;28;20502;-93
2024/03/26 04:19:14;;;;;;;;;;;;;;;;;;;;;
2024/03/26 04:24:38;;;;;;;34.47;31.25;;;;;;;;;;4907027;29;20045;-95
2024/03/26 04:27:06;;;;;;;42.78;39.22;;;;;;;;;;4890775;29;20037;-96
2024/03/26 04:29:35;;;;;;;51.40;47.58;;;;;;;;;;4926806;29;20095;-96
2024/03/26 04:32:22;;;;;;;46.38;42.65;;;;;;;;;;4926884;29;20031;-96
2024/03/26 04:35:07;;;;;;;;;;;;;;;;;;;;;
2024/03/26 04:37:47;;;;;;;;;;;;;;;;;;;;;
2024/03/26 04:40:23;;;;;;;33.60;30.50;;;;;;;;;;5003279;28;20128;-95
2024/03/26 04:46:26;;;;;;;27.42;24.02;;;;;;;;;;5008531;28;20045;-96
2024/03/26 04:48:56;;;;;;;35.00;31.88;;;;;;;;;;4928986;29;20068;-96
2024/03/26 04:51:51;;;;;;;;;;;;;;;;;;;;;
2024/03/26 04:54:40;;;;;;;36.28;33.15;;;;;;;;;;4910715;29;20032;-96
2024/03/26 04:57:32;;;;;;;39.83;36.58;;;;;;;;;;4900919;29;20089;-96
2024/03/26 05:03:52;;;;;;;;;;;;;;;;;;;;;
2024/03/26 05:06:26;;;;;;;31.52;28.50;;;;;;;;;;4892261;29;20064;-96
2024/03/26 05:09:24;;;;;;;51.38;47.25;;;;;;;;;;4859368;29;20049;-96
2024/03/26 05:12:00;;;;;;;35.15;31.40;;;;;;;;;;4871785;29;20128;-95
2024/03/26 05:58:34;;;;;;;83.65;79.05;;;;;;;;;;4892207;29;20055;-96
2024/03/26 06:07:00;;;;;;;51.42;48.22;;;;;;;;;;5088299;23;20051;-95
2024/03/26 06:12:48;;;;;;;40.88;38.28;;;;;;;;;;5005886;23;20055;-95
2024/03/26 07:47:46;;;;;;;64.35;60.63;;;;;;;;;;4903206;29;20108;-95
2024/03/26 07:53:04;;;;;;;56.03;52.70;;;;;;;;;;5056286;23;20039;-96
2024/03/26 08:18:02;;;;;;;68.78;64.53;;;;;;;;;;5049667;23;20171;-95
2024/03/26 08:27:13;;;;;;;68.43;64.53;;;;;;;;;;4955773;28;20440;-95
2024/03/26 08:30:16;;;;;;;52.13;49.03;;;;;;;;;;4977720;28;20031;-92
2024/03/26 08:32:57;;;;;;;61.78;58.17;;;;;;;;;;4992501;28;20547;-92
2024/03/26 08:41:42;;;;;;;64.97;61.08;;;;;;;;;;4991947;28;20058;-93
2024/03/26 08:44:35;;;;;;;69.28;64.95;;;;;;;;;;4955318;28;20079;-92
2024/03/26 08:58:55;;;;;;;63.28;59.53;;;;;;;;;;4971117;28;20097;-96
2024/03/26 09:11:20;;;;;;;;;;;;;;;;;;;;;
2024/03/26 09:20:30;;;;;;;71.47;67.33;;;;;;;;;;4973241;28;20107;-95
2024/03/26 09:26:37;;;;;;;59.67;56.13;;;;;;;;;;4997279;28;20105;-95
2024/03/26 09:29:03;;;;;;;51.90;48.78;;;;;;;;;;4990242;28;20031;-95
2024/03/26 09:32:11;;;;;;;51.90;48.65;;;;;;;;;;4977126;28;20023;-96
2024/03/26 09:38:05;;;;;;;58.97;55.10;;;;;;;;;;5008053;28;20029;-95
2024/03/26 09:41:17;;;;;;;58.72;55.22;;;;;;;;;;5008060;28;20043;-95
2024/03/26 09:43:56;;;;;;;66.55;62.75;;;;;;;;;;4993982;28;20057;-95
2024/03/26 09:46:50;;;;;;;61.22;57.50;;;;;;;;;;4975700;28;20129;-94
2024/03/26 09:49:53;;;;;;;;;;;;;;;;;;;;;
2024/03/26 09:52:50;;;;;;;69.60;65.68;;;;;;;;;;5010918;28;20033;-95
2024/03/26 09:55:45;;;;;;;68.25;64.22;;;;;;;;;;4984777;28;20464;-96
2024/03/26 10:08:40;;;;;;;;;;;;;;;;;;;;;
2024/03/26 10:11:12;;;;;;;76.97;72.45;;;;;;;;;;4942440;28;19946;-96
2024/03/26 10:14:19;;;;;;;99.75;94.15;;;;;;;;;;4895360;29;20033;-95
2024/03/26 10:16:47;;;;;;;58.53;55.15;;;;;;;;;;4871261;29;20533;-96
2024/03/26 10:19:24;;;;;;;62.25;58.70;;;;;;;;;;4873538;29;20037;-95
2024/03/26 10:21:53;;;;;;;56.70;53.38;;;;;;;;;;4898976;29;20033;-93
2024/03/26 10:24:24;;;;;;;65.45;61.58;;;;;;;;;;4908618;29;20063;-96
2024/03/26 10:26:58;;;;;;;59.30;55.38;;;;;;;;;;4918876;29;20023;-96
2024/03/26 10:29:30;;;;;;;62.55;58.65;;;;;;;;;;4946629;29;20421;-96
2024/03/26 10:32:23;;;;;;;63.15;59.33;;;;;;;;;;4937910;29;20099;-96
2024/03/26 10:34:57;;;;;;;66.60;62.72;;;;;;;;;;4936384;29;20532;-96
2024/03/26 10:40:17;;;;;;;72.43;68.35;;;;;;;;;;4929196;29;20028;-96
2024/03/26 10:42:54;;;;;;;66.57;62.78;;;;;;;;;;4918643;29;20524;-94
2024/03/26 10:45:21;;;;;;;61.20;57.88;;;;;;;;;;4953736;29;20058;-96
2024/03/26 10:47:51;;;;;;;66.20;62.65;;;;;;;;;;4971924;29;20086;-96
2024/03/26 10:50:30;;;;;;;59.38;55.97;;;;;;;;;;4950357;29;20033;-96
2024/03/26 10:53:15;;;;;;;66.35;62.40;;;;;;;;;;4956623;29;20042;-96
2024/03/26 10:55:46;;;;;;;62.45;58.65;;;;;;;;;;4955759;29;20131;-96
2024/03/26 10:58:39;;;;;;;67.85;64.07;;;;;;;;;;4953187;29;20028;-92
2024/03/26 11:01:27;;;;;;;55.42;52.33;;;;;;;;;;4939175;29;20055;-96
2024/03/26 11:04:14;;;;;;;;;;;;;;;;;;;;;
2024/03/26 11:06:41;;;;;;;60.17;56.78;;;;;;;;;;4977596;28;20046;-96
2024/03/26 11:09:08;;;;;;;66.45;62.67;;;;;;;;;;4982898;28;20045;-95
2024/03/26 11:11:41;;;;;;;66.07;61.92;;;;;;;;;;4975794;28;20051;-94
2024/03/26 11:14:35;;;;;;;59.78;56.47;;;;;;;;;;4978238;28;20027;-96
2024/03/26 11:17:35;;;;;;;69.28;65.28;;;;;;;;;;4923638;29;20052;-93
2024/03/26 11:20:21;;;;;;;67.78;63.90;;;;;;;;;;4994242;28;20030;-96
2024/03/26 11:23:02;;;;;;;62.97;59.42;;;;;;;;;;4971836;28;20049;-95
2024/03/26 11:25:53;;;;;;;64.00;60.20;;;;;;;;;;4990248;28;20035;-94
2024/03/26 11:28:57;;;;;;;75.72;71.63;;;;;;;;;;4975626;28;20072;-96
2024/03/26 11:31:46;;;;;;;62.97;59.33;;;;;;;;;;4961928;28;20027;-96
2024/03/26 11:35:02;;;;;;;59.83;56.10;;;;;;;;;;4990334;28;20044;-96
2024/03/26 11:37:29;;;;;;;71.22;67.00;;;;;;;;;;4945980;29;20035;-93
2024/03/26 11:43:13;;;;;;;75.40;71.13;;;;;;;;;;4926714;29;20056;-96
2024/03/26 11:45:39;;;;;;;68.60;64.50;;;;;;;;;;4948283;28;20091;-94
2024/03/26 11:48:06;;;;;;;71.28;67.28;;;;;;;;;;4960692;28;20063;-95
2024/03/26 11:50:32;;;;;;;70.18;65.32;;;;;;;;;;4951226;29;20038;-96
2024/03/26 11:53:01;;;;;;;68.65;64.53;;;;;;;;;;4948790;29;20051;-96
2024/03/26 11:55:34;;;;;;;68.68;64.70;;;;;;;;;;4946112;29;20023;-96
2024/03/26 11:58:58;;;;;;;68.72;64.63;;;;;;;;;;4949097;29;20130;-95
2024/03/26 12:01:03;;;;;;;68.78;64.90;;;;;;;;;;4952425;28;20024;-94
2024/03/26 12:04:05;;;;;;;63.53;59.88;;;;;;;;;;4945619;29;20050;-95
2024/03/26 12:06:33;;;;;;;73.80;69.68;;;;;;;;;;4948861;29;20046;-95
2024/03/26 12:09:08;;;;;;;60.67;57.22;;;;;;;;;;4953122;28;20102;-95
2024/03/26 12:11:46;;;;;;;71.10;66.85;;;;;;;;;;4957202;29;20033;-93
2024/03/26 12:14:26;;;;;;;66.97;62.72;;;;;;;;;;4974615;29;20532;-94
2024/03/26 12:17:13;;;;;;;66.93;63.15;;;;;;;;;;4956288;29;20066;-96
2024/03/26 12:19:49;;;;;;;77.03;72.53;;;;;;;;;;4951802;29;20488;-95
2024/03/26 12:22:21;;;;;;;61.60;57.80;;;;;;;;;;4945141;29;20494;-95
2024/03/26 12:25:13;;;;;;;67.75;63.72;;;;;;;;;;4926349;29;20051;-95
2024/03/26 12:27:42;;;;;;;70.70;66.70;;;;;;;;;;4943202;29;20027;-94
2024/03/26 12:30:39;;;;;;;65.55;61.53;;;;;;;;;;4948799;29;20122;-94
2024/03/26 12:36:19;;;;;;;64.90;61.22;;;;;;;;;;4899974;29;20044;-93
2024/03/26 12:38:48;;;;;;;54.95;51.78;;;;;;;;;;4959659;28;20035;-96
2024/03/26 12:41:16;;;;;;;71.03;67.13;;;;;;;;;;4913767;29;20021;-96
2024/03/26 12:43:44;;;;;;;63.90;60.15;;;;;;;;;;4893733;29;20569;-96
2024/03/26 12:49:34;;;;;;;64.35;60.63;;;;;;;;;;4885790;29;20119;-96
2024/03/26 12:52:00;;;;;;;113.40;107.13;;;;;;;;;;4878408;29;20085;-96
2024/03/26 12:54:26;;;;;;;68.10;64.10;;;;;;;;;;4889724;29;20414;-96
2024/03/26 12:56:53;;;;;;;71.80;67.78;;;;;;;;;;4889126;29;20040;-95
2024/03/26 12:59:23;;;;;;;60.28;56.70;;;;;;;;;;4892435;29;20048;-94
2024/03/26 13:01:57;;;;;;;58.15;54.45;;;;;;;;;;4876191;29;20033;-95
2024/03/26 13:04:48;;;;;;;70.65;66.65;;;;;;;;;;4907421;29;20120;-95
2024/03/26 13:07:25;;;;;;;48.17;45.33;;;;;;;;;;4909594;29;20135;-95
2024/03/26 13:10:14;;;;;;;68.10;63.97;;;;;;;;;;4935044;29;20040;-96
2024/03/26 13:12:40;;;;;;;63.65;59.95;;;;;;;;;;4952227;28;20173;-96
2024/03/26 13:15:06;;;;;;;66.63;62.90;;;;;;;;;;4968407;28;20056;-96
2024/03/26 13:17:43;;;;;;;;;;;;;;;;;;;;;
2024/03/26 13:20:31;;;;;;;59.97;55.95;;;;;;;;;;4971245;28;20113;-96
2024/03/26 13:22:57;;;;;;;59.65;56.13;;;;;;;;;;4969563;28;20404;-95
2024/03/26 13:25:23;;;;;;;62.83;59.05;;;;;;;;;;4976109;28;20082;-93
2024/03/26 13:27:55;;;;;;;56.13;52.90;;;;;;;;;;4981144;28;20023;-95
2024/03/26 13:30:26;;;;;;;62.15;58.22;;;;;;;;;;4980467;28;20015;-93
2024/03/26 13:32:53;;;;;;;63.13;59.40;;;;;;;;;;4981265;28;20019;-93
2024/03/26 13:35:20;;;;;;;67.22;63.47;;;;;;;;;;4977639;28;20045;-95
2024/03/26 13:37:46;;;;;;;55.42;52.08;;;;;;;;;;4973328;28;20031;-95
2024/03/26 13:40:16;;;;;;;65.40;60.60;;;;;;;;;;4972547;28;20027;-96
2024/03/26 13:42:52;;;;;;;60.38;56.90;;;;;;;;;;4970505;28;20031;-94
2024/03/26 13:45:22;;;;;;;66.97;63.17;;;;;;;;;;4988020;28;20046;-94
2024/03/26 13:47:50;;;;;;;60.90;57.47;;;;;;;;;;4969070;28;20844;-96
2024/03/26 13:50:16;;;;;;;63.47;59.72;;;;;;;;;;4970862;28;20082;-94
2024/03/26 13:52:45;;;;;;;57.85;54.50;;;;;;;;;;4985640;28;20381;-96
2024/03/26 13:55:28;;;;;;;64.35;60.55;;;;;;;;;;4985394;28;20516;-93
2024/03/26 13:57:54;;;;;;;57.33;53.92;;;;;;;;;;4969056;28;20049;-95
2024/03/26 14:00:21;;;;;;;67.15;63.42;;;;;;;;;;4969353;28;20042;-96
2024/03/26 14:03:01;;;;;;;69.20;65.35;;;;;;;;;;4970608;28;20034;-92
2024/03/26 14:05:31;;;;;;;60.17;56.55;;;;;;;;;;4990628;28;20042;-93
2024/03/26 14:08:16;;;;;;;78.07;73.88;;;;;;;;;;5111515;23;20030;-94
2024/03/26 14:10:46;;;;;;;67.90;64.03;;;;;;;;;;5000918;28;20039;-94
2024/03/26 14:13:21;;;;;;;74.32;70.15;;;;;;;;;;5016431;28;20045;-96
2024/03/26 14:15:50;;;;;;;80.13;75.38;;;;;;;;;;4993689;28;20049;-96
2024/03/26 14:18:26;;;;;;;60.00;56.63;;;;;;;;;;4994977;28;20030;-93
2024/03/26 14:20:52;;;;;;;77.53;73.13;;;;;;;;;;4999476;28;20078;-96
2024/03/26 14:23:44;;;;;;;67.03;63.20;;;;;;;;;;4993193;28;20026;-96
2024/03/26 14:27:02;;;;;;;;;;;;;;;;;;;;;
2024/03/26 14:33:06;;;;;;;72.68;68.45;;;;;;;;;;4983883;28;20111;-96
2024/03/26 14:35:38;;;;;;;70.18;65.88;;;;;;;;;;4975992;28;20042;-96
2024/03/26 14:38:04;;;;;;;68.28;64.40;;;;;;;;;;4972589;28;20027;-96
2024/03/26 14:40:31;;;;;;;69.22;65.25;;;;;;;;;;4974394;28;20127;-96
2024/03/26 14:43:07;;;;;;;64.07;60.22;;;;;;;;;;4975428;28;20027;-96
2024/03/26 14:45:37;;;;;;;55.08;51.78;;;;;;;;;;4988450;28;20030;-96
2024/03/26 14:48:03;;;;;;;55.38;52.10;;;;;;;;;;4968396;28;20031;-96
2024/03/26 14:50:31;;;;;;;72.53;68.43;;;;;;;;;;4969109;28;20208;-96
2024/03/26 14:53:02;;;;;;;66.57;62.80;;;;;;;;;;4966557;28;20046;-96
2024/03/26 14:55:30;;;;;;;82.22;77.75;;;;;;;;;;4963822;28;20027;-96
2024/03/26 14:57:59;;;;;;;52.78;49.60;;;;;;;;;;4970278;28;20034;-93
2024/03/26 15:00:26;;;;;;;72.35;67.82;;;;;;;;;;4988734;28;20119;-95
2024/03/26 15:02:55;;;;;;;54.45;50.83;;;;;;;;;;4969595;28;20038;-93
2024/03/26 15:05:21;;;;;;;60.38;56.88;;;;;;;;;;4967683;28;20047;-96
2024/03/26 15:07:47;;;;;;;56.80;53.17;;;;;;;;;;4962909;28;20050;-95
2024/03/26 15:10:14;;;;;;;60.90;57.40;;;;;;;;;;4972775;28;20022;-96
2024/03/26 15:12:49;;;;;;;67.78;63.80;;;;;;;;;;4980637;28;20077;-95
2024/03/26 15:15:16;;;;;;;63.63;59.25;;;;;;;;;;4957373;28;20027;-95
2024/03/26 15:17:42;;;;;;;54.65;51.15;;;;;;;;;;4976094;28;20054;-94
2024/03/26 15:20:12;;;;;;;67.00;63.28;;;;;;;;;;4962901;28;20035;-92
2024/03/26 15:22:44;;;;;;;58.95;55.22;;;;;;;;;;4960544;28;20034;-95
2024/03/26 15:25:12;;;;;;;56.60;53.20;;;;;;;;;;4967399;28;20047;-95
2024/03/26 15:33:11;;;;;;;62.75;59.20;;;;;;;;;;4998805;28;20054;-96
2024/03/26 15:35:40;;;;;;;60.00;55.78;;;;;;;;;;4949255;29;20039;-96
2024/03/26 15:38:06;;;;;;;61.90;58.40;;;;;;;;;;4947929;29;20031;-95
2024/03/26 15:40:32;;;;;;;61.42;57.47;;;;;;;;;;4981768;28;20030;-95
2024/03/26 15:42:58;;;;;;;59.85;56.17;;;;;;;;;;4981981;28;20045;-96
2024/03/26 15:45:24;;;;;;;69.22;65.05;;;;;;;;;;4983073;28;20041;-93
2024/03/26 15:47:50;;;;;;;61.40;57.63;;;;;;;;;;4980952;28;20030;-94
2024/03/26 15:50:17;;;;;;;50.28;46.60;;;;;;;;;;4981261;28;20033;-94
2024/03/26 15:52:43;;;;;;;63.28;59.55;;;;;;;;;;4984888;28;20050;-96
2024/03/26 15:55:09;;;;;;;64.97;61.15;;;;;;;;;;4983867;28;20027;-92
2024/03/26 15:57:36;;;;;;;53.15;49.97;;;;;;;;;;4982022;28;20057;-94
2024/03/26 16:00:02;;;;;;;74.13;69.90;;;;;;;;;;4967399;28;20027;-95
2024/03/26 16:02:28;;;;;;;60.40;56.58;;;;;;;;;;4960012;28;20030;-93
2024/03/26 16:05:00;;;;;;;43.65;41.00;;;;;;;;;;4970191;28;20130;-93
2024/03/26 16:07:26;;;;;;;42.83;40.33;;;;;;;;;;4959799;28;20027;-93
2024/03/26 16:09:52;;;;;;;69.32;65.40;;;;;;;;;;4963637;28;20031;-96
2024/03/26 16:12:21;;;;;;;73.15;68.82;;;;;;;;;;4980774;28;20031;-96
2024/03/26 16:15:01;;;;;;;125.45;118.65;;;;;;;;;;4973695;28;20026;-96
2024/03/26 16:17:28;;;;;;;93.85;88.20;;;;;;;;;;4970610;28;20042;-94
2024/03/26 16:26:48;;;;;;;69.00;65.13;;;;;;;;;;5041605;23;20069;-96
2024/03/26 16:29:40;;;;;;;77.65;73.28;;;;;;;;;;4955435;28;20014;-95
2024/03/26 16:32:38;;;;;;;78.97;73.85;;;;;;;;;;4966301;28;20125;-96
2024/03/26 16:35:07;;;;;;;75.75;71.32;;;;;;;;;;4985178;28;20050;-96
2024/03/26 16:37:39;;;;;;;61.17;57.72;;;;;;;;;;4951668;28;20035;-93
2024/03/26 16:43:12;;;;;;;67.10;63.20;;;;;;;;;;4983173;28;20096;-95
2024/03/26 16:46:13;;;;;;;74.55;69.95;;;;;;;;;;4966908;28;20082;-96
2024/03/26 16:51:46;;;;;;;45.20;42.53;;;;;;;;;;5052916;23;20049;-93
2024/03/26 16:54:29;;;;;;;44.58;41.90;;;;;;;;;;4977923;28;20055;-95
2024/03/26 16:56:58;;;;;;;63.13;59.47;;;;;;;;;;4946268;29;20031;-96
2024/03/26 16:59:27;;;;;;;70.40;66.45;;;;;;;;;;4943935;29;20090;-95
2024/03/26 17:02:03;;;;;;;73.03;68.45;;;;;;;;;;4965898;28;20026;-96
2024/03/26 17:04:32;;;;;;;63.70;59.95;;;;;;;;;;4971842;28;20047;-96
2024/03/26 17:10:15;;;;;;;57.42;53.67;;;;;;;;;;5070984;23;20042;-93
2024/03/26 17:26:36;;;;;;;63.20;58.35;;;;;;;;;;4952278;28;20027;-95
2024/03/26 17:29:24;;;;;;;46.55;43.78;;;;;;;;;;4933105;29;20064;-95
2024/03/26 17:32:00;;;;;;;;;;;;;;;;;;;;;
2024/03/26 17:41:16;;;;;;;34.40;32.30;;;;;;;;;;4893417;29;20032;-95
2024/03/26 19:26:50;;;;;;;;;;;;;;;;;;;;;
2024/03/26 19:38:13;;;;;;;32.20;30.17;;;;;;;;;;4951782;28;20044;-95
2024/03/26 19:40:39;;;;;;;33.30;31.10;;;;;;;;;;4924429;29;20087;-93
2024/03/26 19:43:06;;;;;;;22.27;20.92;;;;;;;;;;4926556;29;20034;-96
2024/03/26 19:45:32;;;;;;;31.77;29.30;;;;;;;;;;4924831;29;20524;-94
2024/03/26 19:47:58;;;;;;;29.17;26.92;;;;;;;;;;4926791;29;20032;-93
2024/03/26 19:50:25;;;;;;;36.65;34.15;;;;;;;;;;4941507;29;20053;-94
2024/03/26 19:52:53;;;;;;;32.40;30.42;;;;;;;;;;4941086;29;20141;-93
2024/03/26 19:55:19;;;;;;;33.30;31.00;;;;;;;;;;4942050;29;20043;-92
2024/03/26 19:57:46;;;;;;;28.85;26.92;;;;;;;;;;4942384;29;20058;-93
2024/03/26 20:00:13;;;;;;;35.40;33.38;;;;;;;;;;4943629;29;20067;-93
2024/03/26 20:02:39;;;;;;;50.55;47.60;;;;;;;;;;4945704;29;20122;-91
2024/03/26 20:05:05;;;;;;;34.33;32.28;;;;;;;;;;4924862;29;20047;-94
2024/03/26 20:07:31;;;;;;;32.35;30.38;;;;;;;;;;4922908;29;20056;-94
2024/03/26 20:09:57;;;;;;;46.08;43.13;;;;;;;;;;4921710;29;20118;-94
2024/03/26 20:12:23;;;;;;;37.30;35.05;;;;;;;;;;4932374;28;20035;-93
2024/03/26 20:14:51;;;;;;;45.97;43.30;;;;;;;;;;4948797;28;20019;-92
2024/03/26 20:17:17;;;;;;;41.72;39.13;;;;;;;;;;4935211;29;20055;-92
2024/03/26 20:19:46;;;;;;;33.22;31.27;;;;;;;;;;4939887;29;20012;-93
2024/03/26 20:22:13;;;;;;;28.35;26.50;;;;;;;;;;4951198;29;20118;-95
2024/03/26 20:27:53;;;;;;;22.80;21.47;;;;;;;;;;4940410;29;20081;-95
2024/03/26 20:30:19;;;;;;;26.35;24.50;;;;;;;;;;4899351;29;20048;-93
2024/03/26 20:32:45;;;;;;;33.92;31.90;;;;;;;;;;4919490;29;20043;-94
2024/03/26 20:35:20;;;;;;;31.98;29.95;;;;;;;;;;4922513;29;20028;-94
2024/03/26 20:37:46;;;;;;;34.70;32.72;;;;;;;;;;4936643;29;20129;-96
2024/03/26 20:40:13;;;;;;;28.27;26.58;;;;;;;;;;4941612;29;20477;-93
2024/03/26 20:42:39;;;;;;;32.80;30.90;;;;;;;;;;4940936;29;20160;-94
2024/03/26 20:45:09;;;;;;;35.75;32.67;;;;;;;;;;4940448;29;20066;-91
2024/03/26 20:47:35;;;;;;;27.42;25.83;;;;;;;;;;4940870;29;20031;-95
2024/03/26 20:50:05;;;;;;;24.23;22.52;;;;;;;;;;4941175;29;20031;-92
2024/03/26 20:52:31;;;;;;;32.53;30.63;;;;;;;;;;4941776;29;20031;-94
2024/03/26 20:54:57;;;;;;;30.55;28.60;;;;;;;;;;4941439;28;20461;-93
2024/03/26 21:00:28;;;;;;;23.27;21.77;;;;;;;;;;4941776;29;20042;-93
2024/03/26 21:03:00;;;;;;;27.48;25.63;;;;;;;;;;4922248;29;20032;-92
2024/03/26 21:05:26;;;;;;;28.40;26.30;;;;;;;;;;4918413;29;20069;-92
2024/03/26 21:08:03;;;;;;;25.90;24.40;;;;;;;;;;4944777;29;20043;-92
2024/03/26 21:10:33;;;;;;;21.67;20.35;;;;;;;;;;4934274;29;20118;-93
2024/03/26 21:12:59;;;;;;;24.55;23.05;;;;;;;;;;4920350;29;20111;-95
2024/03/26 21:15:28;;;;;;;23.52;21.90;;;;;;;;;;4920170;29;20089;-92
2024/03/26 21:18:03;;;;;;;26.25;24.70;;;;;;;;;;4919917;29;20035;-93
2024/03/26 21:20:31;;;;;;;23.98;22.45;;;;;;;;;;4919498;29;20405;-91
2024/03/26 21:23:01;;;;;;;29.05;27.38;;;;;;;;;;4923995;29;20047;-92
2024/03/26 21:25:29;;;;;;;28.02;26.13;;;;;;;;;;4940459;29;20050;-92
2024/03/26 21:27:56;;;;;;;29.92;27.92;;;;;;;;;;4941032;29;20031;-92
2024/03/26 21:30:22;;;;;;;25.38;23.80;;;;;;;;;;4939210;29;20059;-94
2024/03/26 21:32:51;;;;;;;25.65;23.70;;;;;;;;;;4939569;29;20031;-92
2024/03/26 21:35:36;;;;;;;26.98;25.23;;;;;;;;;;4927696;29;20042;-94
2024/03/26 21:38:03;;;;;;;24.42;22.90;;;;;;;;;;4959491;28;20055;-94
2024/03/26 21:40:30;;;;;;;23.05;21.58;;;;;;;;;;4960982;28;20384;-94
2024/03/26 21:43:02;;;;;;;28.65;26.98;;;;;;;;;;4960478;28;20035;-95
2024/03/26 21:45:29;;;;;;;26.77;25.08;;;;;;;;;;4960171;28;20412;-95
2024/03/26 21:48:01;;;;;;;27.65;25.73;;;;;;;;;;4961506;28;20031;-94
2024/03/26 21:50:27;;;;;;;27.85;26.10;;;;;;;;;;4960981;28;20094;-94
2024/03/26 21:52:53;;;;;;;24.73;23.23;;;;;;;;;;4960740;28;20065;-92
2024/03/26 21:55:20;;;;;;;26.50;24.83;;;;;;;;;;4966447;28;20081;-94
2024/03/26 21:57:46;;;;;;;25.95;24.42;;;;;;;;;;4964009;28;20121;-95
2024/03/26 22:00:13;;;;;;;26.40;24.48;;;;;;;;;;4961485;28;20117;-94
2024/03/26 22:02:41;;;;;;;27.65;26.05;;;;;;;;;;4961968;28;20039;-96
2024/03/26 22:05:08;;;;;;;26.48;24.75;;;;;;;;;;4980044;28;20046;-91
2024/03/26 22:07:34;;;;;;;32.75;30.48;;;;;;;;;;4967189;28;20023;-95
2024/03/26 22:10:01;;;;;;;25.58;23.95;;;;;;;;;;4961944;28;20523;-92
2024/03/26 22:12:37;;;;;;;27.88;26.10;;;;;;;;;;4945912;28;20134;-94
2024/03/26 22:15:04;;;;;;;31.63;29.63;;;;;;;;;;4963461;28;20041;-91
2024/03/26 22:17:31;;;;;;;26.33;24.63;;;;;;;;;;4959086;28;20031;-94
2024/03/26 22:19:57;;;;;;;28.67;26.75;;;;;;;;;;4959023;28;20023;-91
2024/03/26 22:22:23;;;;;;;31.35;29.23;;;;;;;;;;4958653;28;20027;-95
2024/03/26 22:24:49;;;;;;;30.58;28.58;;;;;;;;;;4958613;28;20504;-94
2024/03/26 22:27:16;;;;;;;30.33;28.42;;;;;;;;;;4958422;28;20031;-92
2024/03/26 22:29:42;;;;;;;29.88;27.45;;;;;;;;;;4959217;28;20042;-95